createdAt,value
2023-03-26T00:01:28.528Z,86.94
2023-03-26T00:03:54.899Z,86.97
2023-03-26T00:06:21.471Z,86.97
2023-03-26T00:08:47.862Z,87.01
2023-03-26T00:11:14.232Z,87.01
2023-03-26T00:13:40.622Z,86.97
2023-03-26T00:16:07.227Z,86.99
2023-03-26T00:18:33.627Z,87.02
2023-03-26T00:20:59.993Z,87.08
2023-03-26T00:23:26.559Z,87.13
2023-03-26T00:25:53.137Z,87.12
2023-03-26T00:28:22.646Z,87.09
2023-03-26T00:30:49.066Z,87.03
2023-03-26T00:33:15.471Z,86.98
2023-03-26T00:35:41.915Z,87.12
2023-03-26T00:38:08.540Z,87.05
2023-03-26T00:40:34.945Z,87.01
2023-03-26T00:43:01.304Z,86.96
2023-03-26T00:45:27.674Z,87.00
2023-03-26T00:47:54.059Z,86.98
2023-03-26T00:50:20.480Z,87.05
2023-03-26T00:52:46.882Z,86.94
2023-03-26T00:55:13.299Z,86.91
2023-03-26T00:57:39.714Z,86.95
2023-03-26T01:02:53.906Z,87.03
2023-03-26T01:05:20.357Z,87.01
2023-03-26T01:07:46.752Z,87.10
2023-03-26T01:10:31.510Z,86.90
2023-03-26T01:12:57.877Z,87.05
2023-03-26T01:15:24.266Z,87.05
2023-03-26T01:17:50.635Z,87.07
2023-03-26T01:20:17.020Z,87.03
2023-03-26T01:22:43.590Z,86.94
2023-03-26T01:25:09.923Z,86.94
2023-03-26T01:27:36.468Z,86.86
2023-03-26T01:30:03.032Z,87.15
2023-03-26T01:32:29.424Z,87.16
2023-03-26T01:34:56.104Z,87.18
2023-03-26T01:37:22.433Z,87.21
2023-03-26T01:39:49.010Z,87.24
2023-03-26T01:42:15.351Z,87.23
2023-03-26T01:44:41.684Z,87.12
2023-03-26T01:47:08.012Z,87.37
2023-03-26T01:49:34.347Z,87.28
2023-03-26T01:52:00.674Z,87.33
2023-03-26T01:54:27.217Z,87.31
2023-03-26T01:56:53.627Z,87.21
2023-03-26T01:59:20.206Z,87.25
2023-03-26T02:01:46.682Z,87.18
2023-03-26T02:04:13.100Z,87.26
2023-03-26T02:06:39.433Z,87.28
2023-03-26T02:09:05.981Z,87.33
2023-03-26T02:11:35.779Z,87.11
2023-03-26T02:14:02.732Z,87.03
2023-03-26T02:16:29.114Z,87.07
2023-03-26T02:18:55.731Z,86.99
2023-03-26T02:21:22.550Z,87.08
2023-03-26T02:23:48.887Z,86.92
2023-03-26T02:26:15.236Z,86.92
2023-03-26T02:28:41.572Z,86.80
2023-03-26T02:31:07.914Z,86.86
2023-03-26T02:33:34.266Z,86.95
2023-03-26T02:36:00.984Z,87.04
2023-03-26T02:38:27.361Z,86.95
2023-03-26T02:40:53.696Z,86.80
2023-03-26T02:43:20.049Z,86.82
2023-03-26T02:45:46.418Z,86.95
2023-03-26T02:48:13.002Z,86.90
2023-03-26T02:50:39.352Z,86.74
2023-03-26T02:53:05.698Z,86.78
2023-03-26T02:55:32.043Z,86.71
2023-03-26T02:57:58.364Z,86.84
2023-03-26T03:00:25.555Z,86.84
2023-03-26T03:02:51.986Z,86.74
2023-03-26T03:05:18.366Z,86.80
2023-03-26T03:07:44.701Z,86.82
2023-03-26T03:10:11.047Z,86.66
2023-03-26T03:12:37.387Z,86.64
2023-03-26T03:15:03.735Z,86.64
2023-03-26T03:17:30.323Z,86.64
2023-03-26T03:19:56.673Z,86.86
2023-03-26T03:22:23.027Z,86.87
2023-03-26T03:24:49.402Z,86.81
2023-03-26T03:27:15.941Z,86.73
2023-03-26T03:29:42.280Z,86.63
2023-03-26T03:32:08.613Z,86.75
2023-03-26T03:34:35.188Z,86.68
2023-03-26T03:37:01.510Z,86.59
2023-03-26T03:39:27.843Z,86.54
2023-03-26T03:41:54.171Z,86.68
2023-03-26T03:44:20.499Z,86.83
2023-03-26T03:46:46.834Z,86.76
2023-03-26T03:49:13.163Z,86.87
2023-03-26T03:51:40.523Z,86.93
2023-03-26T03:54:06.864Z,86.87
2023-03-26T03:56:33.203Z,86.72
2023-03-26T03:58:59.785Z,86.65
2023-03-26T04:01:26.143Z,86.61
2023-03-26T04:03:52.530Z,86.62
2023-03-26T04:06:19.019Z,86.59
2023-03-26T04:08:45.558Z,86.89
2023-03-26T04:11:12.117Z,86.82
2023-03-26T04:13:38.443Z,86.76
2023-03-26T04:16:05.002Z,86.87
2023-03-26T04:18:31.355Z,86.74
2023-03-26T04:20:57.689Z,86.57
2023-03-26T04:23:24.040Z,86.83
2023-03-26T04:25:50.405Z,86.82
2023-03-26T04:28:16.748Z,86.61
2023-03-26T04:30:43.091Z,86.82
2023-03-26T04:33:09.420Z,86.49
2023-03-26T04:35:35.789Z,86.50
2023-03-26T04:38:02.165Z,86.66
2023-03-26T04:40:28.756Z,86.78
2023-03-26T04:42:55.083Z,86.86
2023-03-26T04:45:21.635Z,87.10
2023-03-26T04:47:47.992Z,86.84
2023-03-26T04:50:14.545Z,86.79
2023-03-26T04:52:42.567Z,86.94
2023-03-26T04:55:10.254Z,86.84
2023-03-26T04:57:36.617Z,86.73
2023-03-26T05:00:02.981Z,86.63
2023-03-26T05:02:29.406Z,86.66
2023-03-26T05:04:55.762Z,86.75
2023-03-26T05:07:22.099Z,86.75
2023-03-26T05:09:48.432Z,86.91
2023-03-26T05:12:14.760Z,86.94
2023-03-26T05:14:41.092Z,87.07
2023-03-26T05:17:08.428Z,86.86
2023-03-26T05:19:34.770Z,87.32
2023-03-26T05:22:01.108Z,87.17
2023-03-26T05:24:27.467Z,87.07
2023-03-26T05:26:53.817Z,87.04
2023-03-26T05:29:20.401Z,87.09
2023-03-26T05:31:46.747Z,86.86
2023-03-26T05:34:13.101Z,86.89
2023-03-26T05:36:39.439Z,86.86
2023-03-26T05:39:05.983Z,86.76
2023-03-26T05:41:32.528Z,86.92
2023-03-26T05:43:59.075Z,87.02
2023-03-26T05:46:25.469Z,87.04
2023-03-26T05:48:52.083Z,86.80
2023-03-26T05:51:18.437Z,87.15
2023-03-26T05:53:44.764Z,87.04
2023-03-26T05:56:11.320Z,87.16
2023-03-26T05:58:37.648Z,87.12
2023-03-26T06:01:03.982Z,87.03
2023-03-26T06:03:30.400Z,87.10
2023-03-26T06:05:57.019Z,87.03
2023-03-26T06:08:23.553Z,87.16
2023-03-26T06:10:49.888Z,87.12
2023-03-26T06:13:16.231Z,87.06
2023-03-26T06:15:42.638Z,87.19
2023-03-26T06:18:09.046Z,87.11
2023-03-26T06:20:35.442Z,87.10
2023-03-26T06:23:01.781Z,87.21
2023-03-26T06:25:28.121Z,87.03
2023-03-26T06:27:54.457Z,87.23
2023-03-26T06:30:20.795Z,87.22
2023-03-26T06:32:48.597Z,87.14
2023-03-26T06:35:15.168Z,87.17
2023-03-26T06:37:41.720Z,87.40
2023-03-26T06:40:08.280Z,87.40
2023-03-26T06:43:07.183Z,87.27
2023-03-26T06:45:21.125Z,87.05
2023-03-26T06:47:47.500Z,86.91
2023-03-26T06:50:14.113Z,86.79
2023-03-26T06:52:40.480Z,87.14
2023-03-26T06:55:06.830Z,86.98
2023-03-26T06:57:33.176Z,87.08
2023-03-26T06:59:59.743Z,86.90
2023-03-26T07:02:26.102Z,86.79
2023-03-26T07:04:52.439Z,86.85
2023-03-26T07:07:18.769Z,86.62
2023-03-26T07:09:45.112Z,86.71
2023-03-26T07:12:11.430Z,86.87
2023-03-26T07:14:37.972Z,87.06
2023-03-26T07:17:04.316Z,86.96
2023-03-26T07:19:30.676Z,86.72
2023-03-26T07:21:57.017Z,87.07
2023-03-26T07:24:23.342Z,86.80
2023-03-26T07:26:49.674Z,86.58
2023-03-26T07:29:16.019Z,87.08
2023-03-26T07:31:42.643Z,86.90
2023-03-26T07:34:09.915Z,86.92
2023-03-26T07:36:36.452Z,86.94
2023-03-26T07:39:02.981Z,86.96
2023-03-26T07:41:31.889Z,87.01
2023-03-26T07:43:58.261Z,86.97
2023-03-26T07:46:24.825Z,87.05
2023-03-26T07:48:51.380Z,87.13
2023-03-26T07:51:17.762Z,87.26
2023-03-26T07:53:44.308Z,87.20
2023-03-26T07:56:10.682Z,87.12
2023-03-26T07:58:37.405Z,87.17
2023-03-26T08:01:03.749Z,87.08
2023-03-26T08:03:30.275Z,87.00
2023-03-26T08:05:56.947Z,86.81
2023-03-26T08:08:24.511Z,86.90
2023-03-26T08:10:52.060Z,86.85
2023-03-26T08:13:18.493Z,86.78
2023-03-26T08:15:44.844Z,86.96
2023-03-26T08:18:11.512Z,87.15
2023-03-26T08:20:37.886Z,86.82
2023-03-26T08:23:04.233Z,86.70
2023-03-26T08:25:30.582Z,86.10
2023-03-26T08:27:56.936Z,86.12
2023-03-26T08:30:23.298Z,86.53
2023-03-26T08:32:49.657Z,86.66
2023-03-26T08:35:16.021Z,86.89
2023-03-26T08:37:42.562Z,87.06
2023-03-26T08:40:08.896Z,86.24
2023-03-26T08:42:35.262Z,86.84
2023-03-26T08:45:01.617Z,87.09
2023-03-26T08:47:30.749Z,87.17
2023-03-26T08:49:57.320Z,87.19
2023-03-26T08:52:23.661Z,87.12
2023-03-26T08:54:50.224Z,87.04
2023-03-26T08:57:16.565Z,86.63
2023-03-26T08:59:42.948Z,86.97
2023-03-26T09:02:09.333Z,87.09
2023-03-26T09:04:38.578Z,86.87
2023-03-26T09:07:04.938Z,87.04
2023-03-26T09:09:31.325Z,86.25
2023-03-26T09:11:57.900Z,86.25
2023-03-26T09:14:24.232Z,86.92
2023-03-26T09:16:50.569Z,87.00
2023-03-26T09:19:16.907Z,86.75
2023-03-26T09:21:43.475Z,87.05
2023-03-26T09:24:09.816Z,87.06
2023-03-26T09:26:36.171Z,87.11
2023-03-26T09:29:02.498Z,86.89
2023-03-26T09:31:29.056Z,86.81
2023-03-26T09:33:55.403Z,85.85
2023-03-26T09:36:21.777Z,86.47
2023-03-26T09:38:48.140Z,86.62
2023-03-26T09:41:14.488Z,86.64
2023-03-26T09:43:41.050Z,87.01
2023-03-26T09:46:07.465Z,86.70
2023-03-26T09:48:33.829Z,86.15
2023-03-26T09:51:00.170Z,86.44
2023-03-26T09:53:26.533Z,85.78
2023-03-26T09:55:53.311Z,85.97
2023-03-26T09:58:19.825Z,85.80
2023-03-26T10:00:46.212Z,85.67
2023-03-26T10:03:12.600Z,85.33
2023-03-26T10:05:38.940Z,85.31
2023-03-26T10:08:05.271Z,86.11
2023-03-26T10:10:31.631Z,85.79
2023-03-26T10:13:08.315Z,85.70
2023-03-26T10:15:40.182Z,85.20
2023-03-26T10:18:27.428Z,85.33
2023-03-26T10:20:53.206Z,86.39
2023-03-26T10:23:20.031Z,85.25
2023-03-26T10:25:46.384Z,86.60
2023-03-26T10:28:12.712Z,86.27
2023-03-26T10:30:39.077Z,86.69
2023-03-26T10:33:05.519Z,86.84
2023-03-26T10:35:32.137Z,86.01
2023-03-26T10:37:58.484Z,86.41
2023-03-26T10:40:24.886Z,86.02
2023-03-26T10:42:51.275Z,85.84
2023-03-26T10:45:17.620Z,86.06
2023-03-26T10:47:44.014Z,86.42
2023-03-26T10:50:10.391Z,86.38
2023-03-26T10:52:36.929Z,86.44
2023-03-26T10:55:03.263Z,85.82
2023-03-26T10:57:29.654Z,85.57
2023-03-26T10:59:56.006Z,85.98
2023-03-26T11:02:29.418Z,85.94
2023-03-26T11:04:56.916Z,86.38
2023-03-26T11:07:23.250Z,86.30
2023-03-26T11:09:49.591Z,86.65
2023-03-26T11:12:26.693Z,86.23
2023-03-26T11:14:54.883Z,86.76
2023-03-26T11:17:39.580Z,86.96
2023-03-26T11:20:08.046Z,86.61
2023-03-26T11:22:34.415Z,86.00
2023-03-26T11:25:00.991Z,85.76
2023-03-26T11:27:27.333Z,85.88
2023-03-26T11:29:53.661Z,86.83
2023-03-26T11:32:20.035Z,86.01
2023-03-26T11:34:46.719Z,86.09
2023-03-26T11:37:13.062Z,85.99
2023-03-26T11:39:39.403Z,86.54
2023-03-26T11:42:05.747Z,86.49
2023-03-26T11:44:32.096Z,85.86
2023-03-26T11:46:58.744Z,85.95
2023-03-26T11:49:25.276Z,85.85
2023-03-26T11:51:51.632Z,85.61
2023-03-26T11:54:17.993Z,85.63
2023-03-26T11:57:05.755Z,85.82
2023-03-26T11:59:30.844Z,85.77
2023-03-26T12:01:57.449Z,85.75
2023-03-26T12:04:23.901Z,85.92
2023-03-26T12:06:50.239Z,85.62
2023-03-26T12:09:16.521Z,85.55
2023-03-26T12:11:42.854Z,85.45
2023-03-26T12:14:09.199Z,85.53
2023-03-26T12:16:35.579Z,85.38
2023-03-26T12:19:01.966Z,85.43
2023-03-26T12:21:28.331Z,85.50
2023-03-26T12:23:54.883Z,85.07
2023-03-26T12:26:21.217Z,85.13
2023-03-26T12:28:47.772Z,85.35
2023-03-26T12:31:14.139Z,85.00
2023-03-26T12:33:40.496Z,84.35
2023-03-26T12:36:06.854Z,84.57
2023-03-26T12:38:33.436Z,85.85
2023-03-26T12:40:59.864Z,85.59
2023-03-26T12:44:54.971Z,84.65
2023-03-26T12:47:56.355Z,85.36
2023-03-26T12:48:58.886Z,85.71
2023-03-26T12:51:25.328Z,86.16
2023-03-26T12:53:51.669Z,85.67
2023-03-26T12:56:18.260Z,85.79
2023-03-26T12:58:44.588Z,85.78
2023-03-26T13:01:10.952Z,85.86
2023-03-26T13:03:37.338Z,85.87
2023-03-26T13:06:03.714Z,86.02
2023-03-26T13:08:30.052Z,85.97
2023-03-26T13:10:56.483Z,86.30
2023-03-26T13:13:23.305Z,86.37
2023-03-26T13:15:50.752Z,86.14
2023-03-26T13:18:18.700Z,86.54
2023-03-26T13:20:45.035Z,86.38
2023-03-26T13:23:11.359Z,86.18
2023-03-26T13:25:37.689Z,86.37
2023-03-26T13:28:04.029Z,86.32
2023-03-26T13:30:30.460Z,86.51
2023-03-26T13:32:56.956Z,86.08
2023-03-26T13:35:23.611Z,86.38
2023-03-26T13:37:49.996Z,86.16
2023-03-26T13:40:16.363Z,86.25
2023-03-26T13:42:42.731Z,86.21
2023-03-26T13:45:09.094Z,86.10
2023-03-26T13:47:35.466Z,86.42
2023-03-26T13:50:01.823Z,86.31
2023-03-26T13:52:28.157Z,86.44
2023-03-26T13:54:54.499Z,86.41
2023-03-26T13:57:20.899Z,86.18
2023-03-26T13:59:47.249Z,86.04
2023-03-26T14:02:13.591Z,86.50
2023-03-26T14:04:39.938Z,86.28
2023-03-26T14:07:06.496Z,86.19
2023-03-26T14:09:32.826Z,86.59
2023-03-26T14:11:59.151Z,86.31
2023-03-26T14:14:25.487Z,86.15
2023-03-26T14:16:52.040Z,86.57
2023-03-26T14:19:18.381Z,86.29
2023-03-26T14:21:44.726Z,85.92
2023-03-26T14:24:11.070Z,86.00
2023-03-26T14:26:37.420Z,85.65
2023-03-26T14:29:03.984Z,85.49
2023-03-26T14:31:30.356Z,85.52
2023-03-26T14:33:56.741Z,85.56
2023-03-26T14:36:23.089Z,85.43
2023-03-26T14:38:49.427Z,85.59
2023-03-26T14:41:15.993Z,85.38
2023-03-26T14:43:42.317Z,85.86
2023-03-26T14:46:08.670Z,85.64
2023-03-26T14:48:35.048Z,85.75
2023-03-26T14:51:01.456Z,85.75
2023-03-26T14:53:27.868Z,85.75
2023-03-26T14:55:54.208Z,86.14
2023-03-26T14:58:20.776Z,86.21
2023-03-26T15:00:47.145Z,86.30
2023-03-26T15:03:13.548Z,86.03
2023-03-26T15:05:39.921Z,86.14
2023-03-26T15:08:06.247Z,86.03
2023-03-26T15:10:32.591Z,85.65
2023-03-26T15:12:58.922Z,86.33
2023-03-26T15:15:25.258Z,86.20
2023-03-26T15:17:51.654Z,85.78
2023-03-26T15:20:18.266Z,86.01
2023-03-26T15:22:44.623Z,85.94
2023-03-26T15:25:10.960Z,86.07
2023-03-26T15:27:37.302Z,85.86
2023-03-26T15:30:03.637Z,86.12
2023-03-26T15:32:30.291Z,86.56
2023-03-26T15:34:56.678Z,86.29
2023-03-26T15:37:23.011Z,85.90
2023-03-26T15:39:59.570Z,86.09
2023-03-26T15:42:26.779Z,85.72
2023-03-26T15:44:54.323Z,85.55
2023-03-26T15:47:20.830Z,85.76
2023-03-26T15:49:47.168Z,85.86
2023-03-26T15:52:13.519Z,86.09
2023-03-26T15:54:39.875Z,85.94
2023-03-26T15:57:06.255Z,85.84
2023-03-26T15:59:32.893Z,85.82
2023-03-26T16:01:59.226Z,86.13
2023-03-26T16:04:25.565Z,85.79
2023-03-26T16:06:51.901Z,85.72
2023-03-26T16:09:18.238Z,85.73
2023-03-26T16:11:44.595Z,85.41
2023-03-26T16:14:10.940Z,85.35
2023-03-26T16:16:37.274Z,85.62
2023-03-26T16:19:03.615Z,85.87
2023-03-26T16:21:32.177Z,85.98
2023-03-26T16:23:59.043Z,86.01
2023-03-26T16:26:25.374Z,86.17
2023-03-26T16:28:51.970Z,85.89
2023-03-26T16:31:37.244Z,85.94
2023-03-26T16:34:04.627Z,85.58
2023-03-26T16:36:30.967Z,85.81
2023-03-26T16:38:57.508Z,85.89
2023-03-26T16:41:23.836Z,86.14
2023-03-26T16:43:50.183Z,86.02
2023-03-26T16:46:16.559Z,85.94
2023-03-26T16:48:42.924Z,85.94
2023-03-26T16:51:09.262Z,85.97
2023-03-26T16:53:35.593Z,85.83
2023-03-26T16:56:02.146Z,86.04
2023-03-26T16:58:28.485Z,86.01
2023-03-26T17:00:55.058Z,86.01
2023-03-26T17:03:21.598Z,86.32
2023-03-26T17:05:48.217Z,86.20
2023-03-26T17:08:14.573Z,86.04
2023-03-26T17:10:40.910Z,86.04
2023-03-26T17:13:07.256Z,86.02
2023-03-26T17:15:33.595Z,86.09
2023-03-26T17:17:59.963Z,85.97
2023-03-26T17:20:26.303Z,85.96
2023-03-26T17:22:52.632Z,86.05
2023-03-26T17:25:18.963Z,86.07
2023-03-26T17:27:45.299Z,86.08
2023-03-26T17:30:11.809Z,85.94
2023-03-26T17:32:38.340Z,86.13
2023-03-26T17:35:08.058Z,86.27
2023-03-26T17:37:34.408Z,86.45
2023-03-26T17:40:00.964Z,86.32
2023-03-26T17:42:27.337Z,86.07
2023-03-26T17:44:53.700Z,85.99
2023-03-26T17:47:20.031Z,85.93
2023-03-26T17:49:46.357Z,85.98
2023-03-26T17:52:12.685Z,85.87
2023-03-26T17:54:39.014Z,85.78
2023-03-26T17:57:05.368Z,86.19
2023-03-26T17:59:31.728Z,85.93
2023-03-26T18:01:58.339Z,86.08
2023-03-26T18:04:24.730Z,85.94
2023-03-26T18:06:51.075Z,85.90
2023-03-26T18:09:17.407Z,86.01
2023-03-26T18:11:43.752Z,85.88
2023-03-26T18:14:10.120Z,85.94
2023-03-26T18:16:36.513Z,85.96
2023-03-26T18:19:02.911Z,85.89
2023-03-26T18:21:29.240Z,86.05
2023-03-26T18:23:59.935Z,85.98
2023-03-26T18:26:26.912Z,85.94
2023-03-26T18:28:53.246Z,85.92
2023-03-26T18:31:19.692Z,85.93
2023-03-26T18:33:46.103Z,86.03
2023-03-26T18:36:12.447Z,86.17
2023-03-26T18:38:40.001Z,85.94
2023-03-26T18:41:07.534Z,86.14
2023-03-26T18:43:35.130Z,86.06
2023-03-26T18:46:02.127Z,85.99
2023-03-26T18:48:28.485Z,85.96
2023-03-26T18:50:55.230Z,86.04
2023-03-26T18:53:21.778Z,86.16
2023-03-26T18:55:48.113Z,86.26
2023-03-26T18:58:14.442Z,86.19
2023-03-26T19:00:40.772Z,86.23
2023-03-26T19:03:07.195Z,86.03
2023-03-26T19:05:33.559Z,86.03
2023-03-26T19:07:59.896Z,86.13
2023-03-26T19:10:26.457Z,86.18
2023-03-26T19:12:52.787Z,86.23
2023-03-26T19:15:19.111Z,86.32
2023-03-26T19:17:45.527Z,86.36
2023-03-26T19:20:11.948Z,86.44
2023-03-26T19:22:38.283Z,86.36
2023-03-26T19:25:04.624Z,86.33
2023-03-26T19:27:30.954Z,86.30
2023-03-26T19:29:57.304Z,86.33
2023-03-26T19:32:23.664Z,86.42
2023-03-26T19:34:50.019Z,86.38
2023-03-26T19:37:16.352Z,86.36
2023-03-26T19:39:42.747Z,86.35
2023-03-26T19:42:09.113Z,86.30
2023-03-26T19:44:35.449Z,86.33
2023-03-26T19:47:01.869Z,86.35
2023-03-26T19:49:28.564Z,86.32
2023-03-26T19:51:55.013Z,86.37
2023-03-26T19:54:21.337Z,86.28
2023-03-26T19:56:47.729Z,86.23
2023-03-26T19:59:14.079Z,86.31
2023-03-26T20:01:40.486Z,86.45
2023-03-26T20:04:06.933Z,86.46
2023-03-26T20:06:42.625Z,86.42
2023-03-26T20:09:10.531Z,86.42
2023-03-26T20:11:36.960Z,86.44
2023-03-26T20:14:03.298Z,86.38
2023-03-26T20:16:29.669Z,86.44
2023-03-26T20:18:56.218Z,86.48
2023-03-26T20:21:22.548Z,86.48
2023-03-26T20:23:48.880Z,86.35
2023-03-26T20:26:15.242Z,86.46
2023-03-26T20:28:47.685Z,86.40
2023-03-26T20:31:14.906Z,86.44
2023-03-26T20:33:41.310Z,86.85
2023-03-26T20:36:07.730Z,87.05
2023-03-26T20:38:39.537Z,86.79
2023-03-26T20:41:06.408Z,86.69
2023-03-26T20:43:32.746Z,86.34
2023-03-26T20:45:59.324Z,87.41
2023-03-26T20:48:25.664Z,87.10
2023-03-26T20:50:52.012Z,86.85
2023-03-26T20:53:18.359Z,86.55
2023-03-26T20:55:44.700Z,86.57
2023-03-26T20:58:11.023Z,86.63
2023-03-26T21:00:37.472Z,86.46
2023-03-26T21:03:03.919Z,86.63
2023-03-26T21:05:30.315Z,86.91
2023-03-26T21:07:56.704Z,86.63
2023-03-26T21:10:23.044Z,86.61
2023-03-26T21:12:49.385Z,86.94
2023-03-26T21:15:22.985Z,86.80
2023-03-26T21:17:50.000Z,86.62
2023-03-26T21:20:16.388Z,86.57
2023-03-26T21:22:42.730Z,87.06
2023-03-26T21:25:09.082Z,86.64
2023-03-26T21:27:35.664Z,86.51
2023-03-26T21:30:02.033Z,86.69
2023-03-26T21:32:28.436Z,86.59
2023-03-26T21:37:24.081Z,86.59
2023-03-26T21:39:50.414Z,86.83
2023-03-26T21:42:16.752Z,86.81
2023-03-26T21:44:43.102Z,86.67
2023-03-26T21:47:09.892Z,86.75
2023-03-26T21:49:36.623Z,86.74
2023-03-26T21:52:02.959Z,87.01
2023-03-26T21:54:29.290Z,86.79
2023-03-26T21:56:55.646Z,86.92
2023-03-26T21:59:22.032Z,86.89
2023-03-26T22:01:48.422Z,86.77
2023-03-26T22:04:14.797Z,86.89
2023-03-26T22:06:41.358Z,87.05
2023-03-26T22:09:07.688Z,87.06
2023-03-26T22:11:34.029Z,86.74
2023-03-26T22:14:00.405Z,86.95
2023-03-26T22:16:26.769Z,86.90
2023-03-26T22:18:53.123Z,86.90
2023-03-26T22:21:19.446Z,86.73
2023-03-26T22:23:45.994Z,86.90
2023-03-26T22:26:12.323Z,86.76
2023-03-26T22:28:38.642Z,86.66
2023-03-26T22:31:05.012Z,86.72
2023-03-26T22:33:31.374Z,87.02
2023-03-26T22:35:57.728Z,86.81
2023-03-26T22:38:24.084Z,86.69
2023-03-26T22:40:50.421Z,87.17
2023-03-26T22:43:16.755Z,87.48
2023-03-26T22:45:43.351Z,87.12
2023-03-26T22:48:09.730Z,87.35
2023-03-26T22:50:36.095Z,87.12
2023-03-26T22:53:02.461Z,87.01
2023-03-26T22:55:29.990Z,87.34
2023-03-26T22:57:56.587Z,87.26
2023-03-26T23:00:22.924Z,87.15
2023-03-26T23:02:49.651Z,87.20
2023-03-26T23:05:16.051Z,87.12
2023-03-26T23:07:42.428Z,86.90
2023-03-26T23:10:08.852Z,86.73
2023-03-26T23:12:35.182Z,87.20
2023-03-26T23:15:01.533Z,87.48
2023-03-26T23:17:27.932Z,87.32
2023-03-26T23:19:54.488Z,87.30
2023-03-26T23:22:20.812Z,86.94
2023-03-26T23:24:47.152Z,87.26
2023-03-26T23:27:13.492Z,87.38
2023-03-26T23:29:39.820Z,86.93
2023-03-26T23:32:24.146Z,87.07
2023-03-26T23:34:51.914Z,87.41
2023-03-26T23:37:19.043Z,87.49
2023-03-26T23:39:45.371Z,87.47
2023-03-26T23:42:11.718Z,87.64
2023-03-26T23:44:38.070Z,87.87
2023-03-26T23:47:04.404Z,87.87
2023-03-26T23:49:30.742Z,88.15
2023-03-26T23:51:57.094Z,87.93
2023-03-26T23:54:23.652Z,88.03
2023-03-26T23:56:50.032Z,88.13
2023-03-26T23:59:16.412Z,88.04
